Crystal Springs, Utah
Current Conditions -  °F | °C
As of 2:35 AM on Thursday 23 Oct 2014 (Local Time) from KBMC Reporting Station
Clear Clear  
Wind Chill: 39°   Ceiling: Unl
Heat Index: 39°   Visibility: 10mi
Dew Point: 32°   Wind: 0mph
Humidity: 75%   Direction: NA
Pressure: 30.17"   Gusts: NA
Location:  41.6146°N, 112.071°W
Report Text: KBMC 230835Z AUTO 00000KT 10SM CLR 04/00 A3017 RMK AO1 T00391001
Loading
Personal Weather Stations






























Interactive Weather Map
Tropical Storm Tracking
New forecast layout! Learn more

10-Day Weather Forecast

Advertisements
Track Severe Weather on mobile